Time;durP1;ratioP1;P1;durP2;ratioP2;P2;SDS_P1;SDS_P2;PMS_P1;PMS_P2;Temp;Humidity;BMP_temperature;BMP_pressure;BME280_temperature;BME280_humidity;BME280_pressure;Samples;Min_cycle;Max_cycle;Signal;HPM_P1;HPM_P2
2022/01/06 00:01:24;;;;;;;;;;;;;;;;;;5009749;28;19932;-73
2022/01/06 00:03:52;;;;;;;;;;;;;;;;;;5009048;28;19930;-73
2022/01/06 00:06:20;;;;;;;;;;;;;;;;;;5006994;28;20380;-72
2022/01/06 00:08:47;;;;;;;;;;;;;;;;;;5005074;28;20340;-73
2022/01/06 00:11:14;;;;;;;;;;;;;;;;;;5003726;28;20336;-73
2022/01/06 00:13:51;;;;;;;;;;;;;;;;;;5005455;28;20394;-72
2022/01/06 00:16:29;;;;;;;;;;;;;;;;;;4995735;28;19930;-72
2022/01/06 00:24:25;;;;;;;;;;;;;;;;;;5010303;28;19950;-74
2022/01/06 00:26:52;;;;;;;;;;;;;;;;;;5010092;28;19926;-75
2022/01/06 00:29:19;;;;;;;;;;;;;;;;;;4997673;28;19926;-73
2022/01/06 00:31:46;;;;;;;;;;;;;;;;;;5008538;28;20484;-73
2022/01/06 00:34:13;;;;;;;;;;;;;;;;;;5011135;28;20285;-73
2022/01/06 00:36:40;;;;;;;;;;;;;;;;;;5007129;28;19926;-72
2022/01/06 00:39:07;;;;;;;;;;;;;;;;;;5011402;28;19940;-72
2022/01/06 00:41:36;;;;;;;;;;;;;;;;;;5012716;28;19926;-72
2022/01/06 00:44:03;;;;;;;;;;;;;;;;;;5011420;28;19925;-72
2022/01/06 00:46:30;;;;;;;;;;;;;;;;;;5010759;28;19926;-72
2022/01/06 00:48:57;;;;;;;;;;;;;;;;;;5009523;28;19934;-72
2022/01/06 00:51:24;;;;;;;;;;;;;;;;;;5012029;28;19925;-72
2022/01/06 00:53:51;;;;;;;;;;;;;;;;;;5011339;28;19929;-72
2022/01/06 00:56:18;;;;;;;;;;;;;;;;;;5009142;28;19926;-72
2022/01/06 00:58:44;;;;;;;;;;;;;;;;;;5011603;28;19926;-73
2022/01/06 01:01:13;;;;;;;;;;;;;;;;;;5013219;28;19930;-73
2022/01/06 01:03:40;;;;;;;;;;;;;;;;;;5005444;28;20016;-73
2022/01/06 01:06:07;;;;;;;;;;;;;;;;;;5009624;28;19932;-71
2022/01/06 01:08:34;;;;;;;;;;;;;;;;;;5006886;28;19925;-71
2022/01/06 01:11:01;;;;;;;;;;;;;;;;;;5009724;28;19932;-72
2022/01/06 01:13:30;;;;;;;;;;;;;;;;;;5010432;28;20631;-73
2022/01/06 01:16:00;;;;;;;;;;;;;;;;;;5010513;28;19948;-72
2022/01/06 01:18:27;;;;;;;;;;;;;;;;;;5009327;28;20296;-73
2022/01/06 01:20:54;;;;;;;;;;;;;;;;;;5010793;28;20033;-73
2022/01/06 01:23:21;;;;;;;;;;;;;;;;;;5011049;28;19926;-73
2022/01/06 01:25:48;;;;;;;;;;;;;;;;;;5008415;28;19940;-73
2022/01/06 01:28:15;;;;;;;;;;;;;;;;;;5011920;28;20140;-71
2022/01/06 01:30:54;;;;;;;;;;;;;;;;;;5012224;28;19934;-71
2022/01/06 01:33:21;;;;;;;;;;;;;;;;;;5000817;28;19925;-71
2022/01/06 01:35:48;;;;;;;;;;;;;;;;;;5007269;28;20262;-71
2022/01/06 01:38:15;;;;;;;;;;;;;;;;;;5006375;28;19943;-70
2022/01/06 01:40:42;;;;;;;;;;;;;;;;;;5012325;28;20425;-69
2022/01/06 01:43:08;;;;;;;;;;;;;;;;;;5008758;28;19932;-70
2022/01/06 01:45:39;;;;;;;;;;;;;;;;;;5007077;28;20024;-69
2022/01/06 01:48:09;;;;;;;;;;;;;;;;;;5004524;28;19948;-70
2022/01/06 01:50:35;;;;;;;;;;;;;;;;;;4999667;28;19926;-71
2022/01/06 01:53:03;;;;;;;;;;;;;;;;;;5010414;28;19936;-69
2022/01/06 01:55:29;;;;;;;;;;;;;;;;;;5005135;28;19930;-69
2022/01/06 01:57:56;;;;;;;;;;;;;;;;;;5009669;28;19925;-70
2022/01/06 02:00:23;;;;;;;;;;;;;;;;;;5010061;28;20016;-70
2022/01/06 02:02:50;;;;;;;;;;;;;;;;;;5006895;28;19929;-70
2022/01/06 02:05:24;;;;;;;;;;;;;;;;;;5011400;28;19933;-70
2022/01/06 02:07:51;;;;;;;;;;;;;;;;;;5008883;28;19932;-69
2022/01/06 02:10:19;;;;;;;;;;;;;;;;;;5002142;28;19929;-69
2022/01/06 02:12:48;;;;;;;;;;;;;;;;;;5010966;28;19926;-70
2022/01/06 02:15:15;;;;;;;;;;;;;;;;;;5012313;28;19925;-70
2022/01/06 02:17:44;;;;;;;;;;;;;;;;;;5009605;28;19933;-70
2022/01/06 02:20:11;;;;;;;;;;;;;;;;;;5009534;28;19952;-70
2022/01/06 02:22:40;;;;;;;;;;;;;;;;;;5009441;28;20308;-70
2022/01/06 02:25:07;;;;;;;;;;;;;;;;;;4998807;28;19926;-69
2022/01/06 02:27:34;;;;;;;;;;;;;;;;;;5009773;28;19932;-69
2022/01/06 02:30:01;;;;;;;;;;;;;;;;;;5013540;28;19933;-72
2022/01/06 02:32:28;;;;;;;;;;;;;;;;;;5008317;28;19926;-70
2022/01/06 02:34:55;;;;;;;;;;;;;;;;;;5010029;28;20293;-69
2022/01/06 02:37:22;;;;;;;;;;;;;;;;;;5010490;28;19932;-70
2022/01/06 02:39:49;;;;;;;;;;;;;;;;;;5006718;28;19926;-71
2022/01/06 02:42:16;;;;;;;;;;;;;;;;;;5010018;28;19925;-70
2022/01/06 02:44:43;;;;;;;;;;;;;;;;;;5004676;28;20016;-70
2022/01/06 02:47:10;;;;;;;;;;;;;;;;;;5007833;28;20300;-70
2022/01/06 02:49:37;;;;;;;;;;;;;;;;;;5010158;28;19926;-70
2022/01/06 02:52:04;;;;;;;;;;;;;;;;;;5003451;28;19936;-70
2022/01/06 02:54:31;;;;;;;;;;;;;;;;;;5011622;28;19925;-70
2022/01/06 02:56:57;;;;;;;;;;;;;;;;;;5010962;28;19937;-72
2022/01/06 02:59:24;;;;;;;;;;;;;;;;;;5011469;28;19940;-70
2022/01/06 03:01:51;;;;;;;;;;;;;;;;;;5011094;28;20004;-70
2022/01/06 03:04:19;;;;;;;;;;;;;;;;;;5008903;28;19925;-70
2022/01/06 03:06:46;;;;;;;;;;;;;;;;;;5007331;28;19948;-69
2022/01/06 03:09:13;;;;;;;;;;;;;;;;;;5009292;28;19926;-74
2022/01/06 03:11:43;;;;;;;;;;;;;;;;;;5014753;28;19926;-73
2022/01/06 03:14:10;;;;;;;;;;;;;;;;;;5011440;28;19944;-70
2022/01/06 03:16:37;;;;;;;;;;;;;;;;;;5010451;28;19925;-71
2022/01/06 03:19:04;;;;;;;;;;;;;;;;;;5010412;28;20090;-70
2022/01/06 03:21:31;;;;;;;;;;;;;;;;;;5014655;28;19989;-71
2022/01/06 03:23:58;;;;;;;;;;;;;;;;;;5005966;28;20385;-73
2022/01/06 03:26:24;;;;;;;;;;;;;;;;;;5009078;28;20526;-70
2022/01/06 03:28:51;;;;;;;;;;;;;;;;;;5011491;28;20435;-69
2022/01/06 03:31:18;;;;;;;;;;;;;;;;;;5010526;28;20012;-70
2022/01/06 03:33:45;;;;;;;;;;;;;;;;;;5005340;28;19932;-70
2022/01/06 03:36:12;;;;;;;;;;;;;;;;;;5007947;28;19925;-70
2022/01/06 03:38:39;;;;;;;;;;;;;;;;;;5006855;28;20282;-70
2022/01/06 03:41:06;;;;;;;;;;;;;;;;;;5008808;28;19931;-70
2022/01/06 03:43:33;;;;;;;;;;;;;;;;;;5008590;28;19929;-70
2022/01/06 03:46:00;;;;;;;;;;;;;;;;;;5006117;28;19925;-70
2022/01/06 03:48:27;;;;;;;;;;;;;;;;;;5005995;28;19926;-70
2022/01/06 03:50:54;;;;;;;;;;;;;;;;;;5006688;28;19929;-70
2022/01/06 03:53:21;;;;;;;;;;;;;;;;;;5006453;28;19926;-70
2022/01/06 03:55:48;;;;;;;;;;;;;;;;;;5005798;28;20021;-70
2022/01/06 03:58:15;;;;;;;;;;;;;;;;;;5006642;28;19940;-70
2022/01/06 04:00:42;;;;;;;;;;;;;;;;;;5015372;28;20016;-70
2022/01/06 04:03:09;;;;;;;;;;;;;;;;;;5011407;28;19925;-70
2022/01/06 04:05:36;;;;;;;;;;;;;;;;;;5009155;28;20304;-70
2022/01/06 04:08:04;;;;;;;;;;;;;;;;;;5006940;28;20020;-71
2022/01/06 04:10:31;;;;;;;;;;;;;;;;;;5015686;28;19926;-70
2022/01/06 04:12:57;;;;;;;;;;;;;;;;;;5009299;28;19964;-71
2022/01/06 04:15:26;;;;;;;;;;;;;;;;;;5013359;28;19932;-70
2022/01/06 04:17:53;;;;;;;;;;;;;;;;;;5008415;28;19926;-71
2022/01/06 04:20:20;;;;;;;;;;;;;;;;;;5007770;28;19932;-68
2022/01/06 04:22:47;;;;;;;;;;;;;;;;;;5013702;28;19931;-70
2022/01/06 04:25:14;;;;;;;;;;;;;;;;;;5016286;28;19929;-69
2022/01/06 04:27:41;;;;;;;;;;;;;;;;;;5012184;28;20615;-70
2022/01/06 04:30:08;;;;;;;;;;;;;;;;;;5014316;28;20028;-69
2022/01/06 04:32:35;;;;;;;;;;;;;;;;;;5013010;28;19925;-69
2022/01/06 04:35:01;;;;;;;;;;;;;;;;;;5012885;28;20291;-69
2022/01/06 04:37:29;;;;;;;;;;;;;;;;;;5010884;28;20273;-69
2022/01/06 04:39:56;;;;;;;;;;;;;;;;;;5010586;28;20016;-68
2022/01/06 04:42:23;;;;;;;;;;;;;;;;;;5012247;28;19925;-69
2022/01/06 04:44:49;;;;;;;;;;;;;;;;;;5011378;28;19933;-68
2022/01/06 04:47:16;;;;;;;;;;;;;;;;;;5011267;28;19925;-70
2022/01/06 04:49:43;;;;;;;;;;;;;;;;;;5016411;28;19929;-70
2022/01/06 04:52:10;;;;;;;;;;;;;;;;;;5011843;28;20499;-70
2022/01/06 04:54:37;;;;;;;;;;;;;;;;;;5009670;28;19925;-70
2022/01/06 04:57:04;;;;;;;;;;;;;;;;;;5008140;28;19929;-69
2022/01/06 04:59:31;;;;;;;;;;;;;;;;;;5011856;28;19929;-70
2022/01/06 05:01:58;;;;;;;;;;;;;;;;;;5011765;28;19932;-70
2022/01/06 05:04:25;;;;;;;;;;;;;;;;;;5011450;28;19929;-69
2022/01/06 05:06:53;;;;;;;;;;;;;;;;;;5009901;28;19933;-70
2022/01/06 05:09:20;;;;;;;;;;;;;;;;;;4999237;28;19963;-70
2022/01/06 05:11:47;;;;;;;;;;;;;;;;;;5009837;28;19992;-70
2022/01/06 05:14:14;;;;;;;;;;;;;;;;;;5011044;28;19929;-70
2022/01/06 05:16:41;;;;;;;;;;;;;;;;;;5009695;28;19932;-70
2022/01/06 05:19:08;;;;;;;;;;;;;;;;;;5002246;28;19926;-70
2022/01/06 05:21:34;;;;;;;;;;;;;;;;;;4950543;28;1775488;-69
2022/01/06 05:24:09;;;;;;;;;;;;;;;;;;5015356;28;20011;-70
2022/01/06 05:26:38;;;;;;;;;;;;;;;;;;5013200;28;20372;-70
2022/01/06 05:29:05;;;;;;;;;;;;;;;;;;5013789;28;19926;-69
2022/01/06 05:31:32;;;;;;;;;;;;;;;;;;5007536;28;20269;-69
2022/01/06 05:33:59;;;;;;;;;;;;;;;;;;5009078;28;20295;-69
2022/01/06 05:36:26;;;;;;;;;;;;;;;;;;5006862;28;19932;-70
2022/01/06 05:38:53;;;;;;;;;;;;;;;;;;4999214;28;19925;-70
2022/01/06 05:41:21;;;;;;;;;;;;;;;;;;5010968;28;19948;-70
2022/01/06 05:43:48;;;;;;;;;;;;;;;;;;5012473;28;20377;-69
2022/01/06 05:46:15;;;;;;;;;;;;;;;;;;5010528;28;20455;-70
2022/01/06 05:48:42;;;;;;;;;;;;;;;;;;5012926;28;20415;-70
2022/01/06 05:51:09;;;;;;;;;;;;;;;;;;5010667;28;19926;-70
2022/01/06 05:53:36;;;;;;;;;;;;;;;;;;5003336;28;19925;-70
2022/01/06 05:56:03;;;;;;;;;;;;;;;;;;5011545;28;19926;-70
2022/01/06 05:58:29;;;;;;;;;;;;;;;;;;5012012;28;20011;-70
2022/01/06 06:00:56;;;;;;;;;;;;;;;;;;5009217;28;19933;-69
2022/01/06 06:03:27;;;;;;;;;;;;;;;;;;5010696;28;19931;-71
2022/01/06 06:05:54;;;;;;;;;;;;;;;;;;5011320;28;19937;-69
2022/01/06 06:08:21;;;;;;;;;;;;;;;;;;5013135;28;19966;-70
2022/01/06 06:10:48;;;;;;;;;;;;;;;;;;5009120;28;19926;-69
2022/01/06 06:13:15;;;;;;;;;;;;;;;;;;5011415;28;19948;-70
2022/01/06 06:15:41;;;;;;;;;;;;;;;;;;5010859;28;19925;-70
2022/01/06 06:18:09;;;;;;;;;;;;;;;;;;5013083;28;19925;-69
2022/01/06 06:20:36;;;;;;;;;;;;;;;;;;5003573;28;19926;-70
2022/01/06 06:23:03;;;;;;;;;;;;;;;;;;4997809;28;19933;-68
2022/01/06 06:25:30;;;;;;;;;;;;;;;;;;5007059;28;19936;-69
2022/01/06 06:27:57;;;;;;;;;;;;;;;;;;5010596;28;19957;-70
2022/01/06 06:30:24;;;;;;;;;;;;;;;;;;5006925;28;19932;-69
2022/01/06 06:32:51;;;;;;;;;;;;;;;;;;5015597;28;19925;-72
2022/01/06 06:35:18;;;;;;;;;;;;;;;;;;5017344;28;19965;-73
2022/01/06 06:37:45;;;;;;;;;;;;;;;;;;5014581;28;19952;-75
2022/01/06 06:40:12;;;;;;;;;;;;;;;;;;5007669;28;19925;-69
2022/01/06 06:42:39;;;;;;;;;;;;;;;;;;5007408;28;19925;-69
2022/01/06 06:45:06;;;;;;;;;;;;;;;;;;5006453;28;19933;-70
2022/01/06 06:47:33;;;;;;;;;;;;;;;;;;5005685;28;19930;-70
2022/01/06 06:50:00;;;;;;;;;;;;;;;;;;5009757;28;19925;-72
2022/01/06 06:52:27;;;;;;;;;;;;;;;;;;5009105;28;19925;-70
2022/01/06 06:54:54;;;;;;;;;;;;;;;;;;5010526;28;19933;-70
2022/01/06 06:57:21;;;;;;;;;;;;;;;;;;5010126;28;19933;-70
2022/01/06 06:59:48;;;;;;;;;;;;;;;;;;5000487;28;20012;-70
2022/01/06 07:02:15;;;;;;;;;;;;;;;;;;5000421;28;19932;-70
2022/01/06 07:04:45;;;;;;;;;;;;;;;;;;5009504;28;19925;-70
2022/01/06 07:07:12;;;;;;;;;;;;;;;;;;5002893;28;20017;-70
2022/01/06 07:09:39;;;;;;;;;;;;;;;;;;5008554;28;19935;-70
2022/01/06 07:12:05;;;;;;;;;;;;;;;;;;5005585;28;19929;-70
2022/01/06 07:14:33;;;;;;;;;;;;;;;;;;5009648;28;20048;-70
2022/01/06 07:16:59;;;;;;;;;;;;;;;;;;5007851;28;19925;-69
2022/01/06 07:19:26;;;;;;;;;;;;;;;;;;5009351;28;19926;-70
2022/01/06 07:21:53;;;;;;;;;;;;;;;;;;4998455;28;19932;-70
2022/01/06 07:24:20;;;;;;;;;;;;;;;;;;5007833;28;19926;-69
2022/01/06 07:26:47;;;;;;;;;;;;;;;;;;5006763;28;19925;-69
2022/01/06 07:29:15;;;;;;;;;;;;;;;;;;5009493;28;19925;-70
2022/01/06 07:31:42;;;;;;;;;;;;;;;;;;5008351;28;20299;-70
2022/01/06 07:34:09;;;;;;;;;;;;;;;;;;5005616;28;19929;-70
2022/01/06 07:36:36;;;;;;;;;;;;;;;;;;5007717;28;20671;-71
2022/01/06 07:39:03;;;;;;;;;;;;;;;;;;5010408;28;19925;-70
2022/01/06 07:41:29;;;;;;;;;;;;;;;;;;5008709;28;20026;-69
2022/01/06 07:43:57;;;;;;;;;;;;;;;;;;5011706;28;20335;-70
2022/01/06 07:46:24;;;;;;;;;;;;;;;;;;5006031;28;20335;-69
2022/01/06 07:48:57;;;;;;;;;;;;;;;;;;5002822;28;19933;-71
2022/01/06 07:51:24;;;;;;;;;;;;;;;;;;4997934;28;19968;-69
2022/01/06 07:53:51;;;;;;;;;;;;;;;;;;5007042;28;19926;-69
2022/01/06 07:56:18;;;;;;;;;;;;;;;;;;5004649;28;19925;-68
2022/01/06 07:58:45;;;;;;;;;;;;;;;;;;5009888;28;19944;-70
2022/01/06 08:01:12;;;;;;;;;;;;;;;;;;5005872;28;20277;-71
2022/01/06 08:03:39;;;;;;;;;;;;;;;;;;5009693;28;19926;-69
2022/01/06 08:06:06;;;;;;;;;;;;;;;;;;5006165;28;19960;-67
2022/01/06 08:08:33;;;;;;;;;;;;;;;;;;5010857;28;20020;-69
2022/01/06 08:11:00;;;;;;;;;;;;;;;;;;5006312;28;20355;-68
2022/01/06 08:13:27;;;;;;;;;;;;;;;;;;5002553;28;20114;-69
2022/01/06 08:15:54;;;;;;;;;;;;;;;;;;5003651;28;19929;-70
2022/01/06 08:18:21;;;;;;;;;;;;;;;;;;5004469;28;19925;-69
2022/01/06 08:20:48;;;;;;;;;;;;;;;;;;5007739;28;20278;-73
2022/01/06 08:23:15;;;;;;;;;;;;;;;;;;5009274;28;19934;-71
2022/01/06 08:25:42;;;;;;;;;;;;;;;;;;5009137;28;20287;-68
2022/01/06 08:28:09;;;;;;;;;;;;;;;;;;5007425;28;20510;-73
2022/01/06 08:30:36;;;;;;;;;;;;;;;;;;5003756;28;19929;-69
2022/01/06 08:33:03;;;;;;;;;;;;;;;;;;5007284;28;20016;-69
2022/01/06 08:35:30;;;;;;;;;;;;;;;;;;5005441;28;19936;-70
2022/01/06 08:37:57;;;;;;;;;;;;;;;;;;5007366;28;19929;-70
2022/01/06 08:40:24;;;;;;;;;;;;;;;;;;5005086;28;20527;-69
2022/01/06 08:42:51;;;;;;;;;;;;;;;;;;4998733;28;19929;-70
2022/01/06 08:45:18;;;;;;;;;;;;;;;;;;5008033;28;19925;-69
2022/01/06 08:47:45;;;;;;;;;;;;;;;;;;5003852;28;19935;-70
2022/01/06 08:50:12;;;;;;;;;;;;;;;;;;5005695;28;20407;-72
2022/01/06 08:52:39;;;;;;;;;;;;;;;;;;5007620;28;19933;-70
2022/01/06 08:55:06;;;;;;;;;;;;;;;;;;5010569;28;19932;-70
2022/01/06 08:57:33;;;;;;;;;;;;;;;;;;5009710;28;19958;-70
2022/01/06 09:00:00;;;;;;;;;;;;;;;;;;5014479;28;19932;-70
2022/01/06 09:02:27;;;;;;;;;;;;;;;;;;5009297;28;19925;-70
2022/01/06 09:04:55;;;;;;;;;;;;;;;;;;5009682;28;20459;-71
2022/01/06 09:07:22;;;;;;;;;;;;;;;;;;5009457;28;19925;-71
2022/01/06 09:09:49;;;;;;;;;;;;;;;;;;5007910;28;19932;-70
2022/01/06 09:12:18;;;;;;;;;;;;;;;;;;5008068;28;19933;-70
2022/01/06 09:14:45;;;;;;;;;;;;;;;;;;5010480;28;19925;-70
2022/01/06 09:17:12;;;;;;;;;;;;;;;;;;5000877;28;19925;-79
2022/01/06 09:19:39;;;;;;;;;;;;;;;;;;5004718;28;19933;-75
2022/01/06 09:22:06;;;;;;;;;;;;;;;;;;5011015;28;19936;-76
2022/01/06 09:24:33;;;;;;;;;;;;;;;;;;5012366;28;19926;-75
2022/01/06 09:27:00;;;;;;;;;;;;;;;;;;5009533;28;20032;-76
2022/01/06 09:29:27;;;;;;;;;;;;;;;;;;5009850;28;19935;-75
2022/01/06 09:31:53;;;;;;;;;;;;;;;;;;5001109;28;19946;-74
2022/01/06 09:34:20;;;;;;;;;;;;;;;;;;5008139;28;19933;-75
2022/01/06 09:36:47;;;;;;;;;;;;;;;;;;5000638;28;19925;-75
2022/01/06 09:39:14;;;;;;;;;;;;;;;;;;5010502;28;20418;-75
2022/01/06 09:41:41;;;;;;;;;;;;;;;;;;5007318;28;20410;-73
2022/01/06 09:44:08;;;;;;;;;;;;;;;;;;5009359;28;19930;-75
2022/01/06 09:46:35;;;;;;;;;;;;;;;;;;5010436;28;21856;-75
2022/01/06 09:49:02;;;;;;;;;;;;;;;;;;5007134;28;19972;-75
2022/01/06 09:51:29;;;;;;;;;;;;;;;;;;5010498;28;19925;-77
2022/01/06 09:53:56;;;;;;;;;;;;;;;;;;5010558;28;19932;-78
2022/01/06 09:56:24;;;;;;;;;;;;;;;;;;5014545;28;20355;-79
2022/01/06 09:58:51;;;;;;;;;;;;;;;;;;5014870;28;19972;-78
2022/01/06 10:01:18;;;;;;;;;;;;;;;;;;5013463;28;19925;-77
2022/01/06 10:03:45;;;;;;;;;;;;;;;;;;5013340;28;19926;-79
2022/01/06 10:06:12;;;;;;;;;;;;;;;;;;5012978;28;20494;-77
2022/01/06 10:08:39;;;;;;;;;;;;;;;;;;5015686;28;20005;-78
2022/01/06 10:11:06;;;;;;;;;;;;;;;;;;5010911;28;20115;-78
2022/01/06 10:13:33;;;;;;;;;;;;;;;;;;5007484;28;19932;-78
2022/01/06 10:16:00;;;;;;;;;;;;;;;;;;5009818;28;19926;-77
2022/01/06 10:18:27;;;;;;;;;;;;;;;;;;5010823;28;19936;-78
2022/01/06 10:20:54;;;;;;;;;;;;;;;;;;5011773;28;20001;-77
2022/01/06 10:23:21;;;;;;;;;;;;;;;;;;5006806;28;20368;-79
2022/01/06 10:25:49;;;;;;;;;;;;;;;;;;5014482;28;19925;-79
2022/01/06 10:28:16;;;;;;;;;;;;;;;;;;5009344;28;19933;-77
2022/01/06 10:30:48;;;;;;;;;;;;;;;;;;5011860;28;22763;-78
2022/01/06 10:33:15;;;;;;;;;;;;;;;;;;5009547;28;20400;-78
2022/01/06 10:35:42;;;;;;;;;;;;;;;;;;5001496;28;19936;-76
2022/01/06 10:38:08;;;;;;;;;;;;;;;;;;5010165;28;19939;-76
2022/01/06 10:40:35;;;;;;;;;;;;;;;;;;5005408;28;19933;-77
2022/01/06 10:43:05;;;;;;;;;;;;;;;;;;5010015;28;20389;-77
2022/01/06 10:45:32;;;;;;;;;;;;;;;;;;5009466;28;19940;-77
2022/01/06 10:47:59;;;;;;;;;;;;;;;;;;5009111;28;20392;-77
2022/01/06 10:50:26;;;;;;;;;;;;;;;;;;5011152;28;19929;-76
2022/01/06 10:52:53;;;;;;;;;;;;;;;;;;5006351;28;19932;-76
2022/01/06 10:55:20;;;;;;;;;;;;;;;;;;5009419;28;19926;-78
2022/01/06 10:57:47;;;;;;;;;;;;;;;;;;5007370;28;20032;-77
2022/01/06 11:00:14;;;;;;;;;;;;;;;;;;5003575;28;19933;-76
2022/01/06 11:02:41;;;;;;;;;;;;;;;;;;5005034;28;19925;-77
2022/01/06 11:05:08;;;;;;;;;;;;;;;;;;5000177;28;19933;-76
2022/01/06 11:07:35;;;;;;;;;;;;;;;;;;5003418;28;19925;-76
2022/01/06 11:10:03;;;;;;;;;;;;;;;;;;5007036;28;19948;-76
2022/01/06 11:12:31;;;;;;;;;;;;;;;;;;5003904;28;19931;-77
2022/01/06 11:14:58;;;;;;;;;;;;;;;;;;5003257;28;19949;-76
2022/01/06 11:17:25;;;;;;;;;;;;;;;;;;5004483;28;20024;-76
2022/01/06 11:19:52;;;;;;;;;;;;;;;;;;5007523;28;19926;-77
2022/01/06 11:22:19;;;;;;;;;;;;;;;;;;5008453;28;19932;-78
2022/01/06 11:24:46;;;;;;;;;;;;;;;;;;5006758;28;19933;-77
2022/01/06 11:27:13;;;;;;;;;;;;;;;;;;5008230;28;19931;-77
2022/01/06 11:29:40;;;;;;;;;;;;;;;;;;5010007;28;20361;-77
2022/01/06 11:32:07;;;;;;;;;;;;;;;;;;5006852;28;19956;-77
2022/01/06 11:34:35;;;;;;;;;;;;;;;;;;5006400;28;19951;-77
2022/01/06 11:37:02;;;;;;;;;;;;;;;;;;5004381;28;19929;-76
2022/01/06 11:39:29;;;;;;;;;;;;;;;;;;5002657;28;20020;-76
2022/01/06 11:41:56;;;;;;;;;;;;;;;;;;5006146;28;19960;-77
2022/01/06 11:44:23;;;;;;;;;;;;;;;;;;5009987;28;20328;-77
2022/01/06 11:46:50;;;;;;;;;;;;;;;;;;5003615;28;20023;-77
2022/01/06 11:49:17;;;;;;;;;;;;;;;;;;5004302;28;20351;-76
2022/01/06 11:51:43;;;;;;;;;;;;;;;;;;5005693;28;19925;-76
2022/01/06 11:54:10;;;;;;;;;;;;;;;;;;5003871;28;19925;-77
2022/01/06 11:56:37;;;;;;;;;;;;;;;;;;5006089;28;20024;-76
2022/01/06 11:59:05;;;;;;;;;;;;;;;;;;5005879;28;19929;-77
2022/01/06 12:01:32;;;;;;;;;;;;;;;;;;5002235;28;20499;-75
2022/01/06 12:03:58;;;;;;;;;;;;;;;;;;5008097;28;19963;-76
2022/01/06 12:06:25;;;;;;;;;;;;;;;;;;5002680;28;19938;-76
2022/01/06 12:08:52;;;;;;;;;;;;;;;;;;5003824;28;19925;-76
2022/01/06 12:11:19;;;;;;;;;;;;;;;;;;5005549;28;19936;-76
2022/01/06 12:13:46;;;;;;;;;;;;;;;;;;5006934;28;19933;-75
2022/01/06 12:16:13;;;;;;;;;;;;;;;;;;5003578;28;20012;-76
2022/01/06 12:18:40;;;;;;;;;;;;;;;;;;5004464;28;19943;-75
2022/01/06 12:21:07;;;;;;;;;;;;;;;;;;5005808;28;19939;-73
2022/01/06 12:23:34;;;;;;;;;;;;;;;;;;5015838;28;19940;-77
2022/01/06 12:26:03;;;;;;;;;;;;;;;;;;5016553;28;19965;-76
2022/01/06 12:28:30;;;;;;;;;;;;;;;;;;5014411;28;19933;-76
2022/01/06 12:30:57;;;;;;;;;;;;;;;;;;5017909;28;20359;-77
2022/01/06 12:33:24;;;;;;;;;;;;;;;;;;5013234;28;19952;-76
2022/01/06 12:35:51;;;;;;;;;;;;;;;;;;5008735;28;20040;-75
2022/01/06 12:38:22;;;;;;;;;;;;;;;;;;5010559;28;19932;-75
2022/01/06 12:40:49;;;;;;;;;;;;;;;;;;5008926;28;20015;-76
2022/01/06 12:43:16;;;;;;;;;;;;;;;;;;5009398;28;19995;-76
2022/01/06 12:45:44;;;;;;;;;;;;;;;;;;5010280;28;19960;-75
2022/01/06 12:48:11;;;;;;;;;;;;;;;;;;5011602;28;20060;-76
2022/01/06 12:50:38;;;;;;;;;;;;;;;;;;5010406;28;19948;-75
2022/01/06 12:53:05;;;;;;;;;;;;;;;;;;5007460;28;20298;-75
2022/01/06 12:55:32;;;;;;;;;;;;;;;;;;5011042;28;20355;-75
2022/01/06 12:58:00;;;;;;;;;;;;;;;;;;5010179;28;22000;-78
2022/01/06 13:00:27;;;;;;;;;;;;;;;;;;5009092;28;19934;-71
2022/01/06 13:02:54;;;;;;;;;;;;;;;;;;5012108;28;19931;-76
2022/01/06 13:05:20;;;;;;;;;;;;;;;;;;5012007;28;20004;-75
2022/01/06 13:07:47;;;;;;;;;;;;;;;;;;5013093;28;19932;-74
2022/01/06 13:10:14;;;;;;;;;;;;;;;;;;5009134;28;20008;-76
2022/01/06 13:12:41;;;;;;;;;;;;;;;;;;5011308;28;19943;-75
2022/01/06 13:15:08;;;;;;;;;;;;;;;;;;5010968;28;19932;-75
2022/01/06 13:17:37;;;;;;;;;;;;;;;;;;5012064;28;19992;-77
2022/01/06 13:20:04;;;;;;;;;;;;;;;;;;5013486;28;19925;-76
2022/01/06 13:22:36;;;;;;;;;;;;;;;;;;5015006;28;19995;-75
2022/01/06 13:25:03;;;;;;;;;;;;;;;;;;5004675;28;19972;-76
2022/01/06 13:27:30;;;;;;;;;;;;;;;;;;5010307;28;19987;-76
2022/01/06 13:29:57;;;;;;;;;;;;;;;;;;5015304;28;20372;-76
2022/01/06 13:32:25;;;;;;;;;;;;;;;;;;5010772;28;20543;-77
2022/01/06 13:34:52;;;;;;;;;;;;;;;;;;5008645;28;19978;-75
2022/01/06 13:37:19;;;;;;;;;;;;;;;;;;5010208;28;20215;-76
2022/01/06 13:39:46;;;;;;;;;;;;;;;;;;5012498;28;19925;-76
2022/01/06 13:42:13;;;;;;;;;;;;;;;;;;5012124;28;19979;-76
2022/01/06 13:44:40;;;;;;;;;;;;;;;;;;5013159;28;19982;-76
2022/01/06 13:47:10;;;;;;;;;;;;;;;;;;5011966;28;19961;-77
2022/01/06 13:52:22;;;;;;;;;;;;;;;;;;5011440;28;19960;-75
2022/01/06 13:54:49;;;;;;;;;;;;;;;;;;5013829;28;19937;-75
2022/01/06 13:57:15;;;;;;;;;;;;;;;;;;5007549;28;19932;-76
2022/01/06 13:59:43;;;;;;;;;;;;;;;;;;5011192;28;19940;-76
2022/01/06 14:02:10;;;;;;;;;;;;;;;;;;5010491;28;19939;-77
2022/01/06 14:04:37;;;;;;;;;;;;;;;;;;5009594;28;19972;-76
2022/01/06 14:07:03;;;;;;;;;;;;;;;;;;5010502;28;19925;-76
2022/01/06 14:09:31;;;;;;;;;;;;;;;;;;5030637;28;19972;-69
2022/01/06 14:19:44;;;;;;;;;;;;;;;;;;5318091;22;19960;-75
2022/01/06 14:22:11;;;;;;;;;;;;;;;;;;5006247;28;20020;-75
2022/01/06 14:24:38;;;;;;;;;;;;;;;;;;5010528;28;19934;-75
2022/01/06 14:27:05;;;;;;;;;;;;;;;;;;5015119;28;19926;-76
2022/01/06 14:29:31;;;;;;;;;;;;;;;;;;5014011;28;19926;-75
2022/01/06 14:31:58;;;;;;;;;;;;;;;;;;5011887;28;19936;-75
2022/01/06 14:34:25;;;;;;;;;;;;;;;;;;4993200;28;19933;-78
2022/01/06 14:36:52;;;;;;;;;;;;;;;;;;4984893;28;20012;-76
2022/01/06 14:39:19;;;;;;;;;;;;;;;;;;4981229;28;19926;-76
2022/01/06 14:41:46;;;;;;;;;;;;;;;;;;4982090;28;19972;-75
2022/01/06 14:44:13;;;;;;;;;;;;;;;;;;4987007;28;19926;-67
2022/01/06 14:46:43;;;;;;;;;;;;;;;;;;4982914;28;20308;-76
2022/01/06 14:49:09;;;;;;;;;;;;;;;;;;4986459;28;19926;-75
2022/01/06 14:51:36;;;;;;;;;;;;;;;;;;4986298;28;20422;-75
2022/01/06 14:54:03;;;;;;;;;;;;;;;;;;4988319;28;19926;-75
2022/01/06 14:56:30;;;;;;;;;;;;;;;;;;4986848;28;20014;-76
2022/01/06 14:58:57;;;;;;;;;;;;;;;;;;4985600;28;20021;-77
2022/01/06 15:01:24;;;;;;;;;;;;;;;;;;4987065;28;19933;-75
2022/01/06 15:03:51;;;;;;;;;;;;;;;;;;4986254;28;19980;-76
2022/01/06 15:06:18;;;;;;;;;;;;;;;;;;4984013;28;19932;-76
2022/01/06 15:08:45;;;;;;;;;;;;;;;;;;4986954;28;19933;-75
2022/01/06 15:11:12;;;;;;;;;;;;;;;;;;4985152;28;19934;-75
2022/01/06 15:13:39;;;;;;;;;;;;;;;;;;4982064;28;20012;-74
2022/01/06 15:16:06;;;;;;;;;;;;;;;;;;4983154;28;20274;-76
2022/01/06 15:18:33;;;;;;;;;;;;;;;;;;4985087;28;20028;-75
2022/01/06 15:21:02;;;;;;;;;;;;;;;;;;4986420;28;19925;-76
2022/01/06 15:23:29;;;;;;;;;;;;;;;;;;4982878;28;20032;-75
2022/01/06 15:25:56;;;;;;;;;;;;;;;;;;4985007;28;19977;-75
2022/01/06 15:28:23;;;;;;;;;;;;;;;;;;4984113;28;19926;-75
2022/01/06 15:30:50;;;;;;;;;;;;;;;;;;4978424;28;20500;-77
2022/01/06 15:33:17;;;;;;;;;;;;;;;;;;4975597;28;20356;-75
2022/01/06 15:35:45;;;;;;;;;;;;;;;;;;4978878;28;20377;-75
2022/01/06 15:38:12;;;;;;;;;;;;;;;;;;4983897;28;19926;-76
2022/01/06 15:40:40;;;;;;;;;;;;;;;;;;4979146;28;20076;-74
2022/01/06 15:43:08;;;;;;;;;;;;;;;;;;4976719;28;19941;-76
2022/01/06 15:45:35;;;;;;;;;;;;;;;;;;4976793;28;20021;-78
2022/01/06 15:48:01;;;;;;;;;;;;;;;;;;4982563;28;19926;-76
2022/01/06 15:50:29;;;;;;;;;;;;;;;;;;4976199;28;19930;-76
2022/01/06 15:52:56;;;;;;;;;;;;;;;;;;4983286;28;19933;-76
2022/01/06 15:55:25;;;;;;;;;;;;;;;;;;4981988;28;20392;-76
2022/01/06 15:57:52;;;;;;;;;;;;;;;;;;4992676;28;20377;-75
2022/01/06 16:00:37;;;;;;;;;;;;;;;;;;4986935;28;19934;-77
2022/01/06 16:05:48;;;;;;;;;;;;;;;;;;4994794;28;19940;-77
2022/01/06 16:08:15;;;;;;;;;;;;;;;;;;5000987;28;19992;-76
2022/01/06 16:10:42;;;;;;;;;;;;;;;;;;4995335;28;19926;-76
2022/01/06 16:13:09;;;;;;;;;;;;;;;;;;4991726;28;19933;-76
2022/01/06 16:15:36;;;;;;;;;;;;;;;;;;4982240;28;19926;-77
2022/01/06 16:18:04;;;;;;;;;;;;;;;;;;4987197;28;19926;-77
2022/01/06 16:20:31;;;;;;;;;;;;;;;;;;4987722;28;20297;-76
2022/01/06 16:22:57;;;;;;;;;;;;;;;;;;4982951;28;20388;-77
2022/01/06 16:25:24;;;;;;;;;;;;;;;;;;4985885;28;19944;-77
2022/01/06 16:27:51;;;;;;;;;;;;;;;;;;4986403;28;19932;-77
2022/01/06 16:30:18;;;;;;;;;;;;;;;;;;4987608;28;20435;-77
2022/01/06 16:32:45;;;;;;;;;;;;;;;;;;4986413;28;19985;-75
2022/01/06 16:35:12;;;;;;;;;;;;;;;;;;4986976;28;19925;-76
2022/01/06 16:37:39;;;;;;;;;;;;;;;;;;4981934;28;19929;-75
2022/01/06 16:40:07;;;;;;;;;;;;;;;;;;4986260;28;19981;-76
2022/01/06 16:42:34;;;;;;;;;;;;;;;;;;4990059;28;20021;-75
2022/01/06 16:45:01;;;;;;;;;;;;;;;;;;4981342;28;19925;-75
2022/01/06 16:47:28;;;;;;;;;;;;;;;;;;4987870;28;19969;-75
2022/01/06 16:49:55;;;;;;;;;;;;;;;;;;4988955;28;19954;-76
2022/01/06 16:52:22;;;;;;;;;;;;;;;;;;4994061;28;20036;-75
2022/01/06 16:54:51;;;;;;;;;;;;;;;;;;4987907;28;19941;-77
2022/01/06 16:57:18;;;;;;;;;;;;;;;;;;4986845;28;19944;-75
2022/01/06 16:59:45;;;;;;;;;;;;;;;;;;4985141;28;19930;-75
2022/01/06 17:02:12;;;;;;;;;;;;;;;;;;4991424;28;19929;-76
2022/01/06 17:04:39;;;;;;;;;;;;;;;;;;4985126;28;19930;-75